Sandcut, Indiana
Current Conditions -  °F | °C
As of 8:53 AM on Thursday 29 Jan 2015 (Local Time) from KHUF Reporting Station
Broken Clouds Broken Clouds  
Wind Chill: 37°   Ceiling: 2600
Heat Index: 44°   Visibility: 10mi
Dew Point: 35°   Wind: 14mph
Humidity: 71%   Direction: 260°W
Pressure: 29.82"   Gusts: NA
Location:  39.543°N, 87.3153°W
Report Text: KHUF 291353Z 26012KT 10SM BKN026 BKN031 07/02 A2982 RMK AO2 SLP102 T00670017
Loading
Personal Weather Stations






























Interactive Weather Map New forecast layout! Learn more

10-Day Weather Forecast

Advertisements
Track Severe Weather on mobile